createdAt,value
2022-11-15T00:03:28.791Z,4.87
2022-11-15T00:06:02.336Z,5.50
2022-11-15T00:08:31.506Z,5.70
2022-11-15T00:11:00.651Z,5.90
2022-11-15T00:13:28.775Z,6.80
2022-11-15T00:15:59.491Z,6.80
2022-11-15T00:18:30.779Z,5.93
2022-11-15T00:23:38.445Z,5.47
2022-11-15T00:26:06.538Z,6.03
2022-11-15T00:28:33.967Z,6.00
2022-11-15T00:31:02.778Z,6.40
2022-11-15T00:33:30.865Z,7.20
2022-11-15T00:36:02.949Z,6.03
2022-11-15T00:38:33.699Z,6.03
2022-11-15T00:41:08.901Z,6.27
2022-11-15T00:48:41.401Z,6.03
2022-11-15T00:51:09.209Z,8.00
2022-11-15T00:53:36.590Z,6.77
2022-11-15T00:56:04.849Z,6.97
2022-11-15T00:58:33.266Z,6.87
2022-11-15T01:01:08.204Z,7.00
2022-11-15T01:03:35.819Z,6.37
2022-11-15T01:06:04.727Z,6.67
2022-11-15T01:08:32.876Z,6.47
2022-11-15T01:16:09.788Z,6.87
2022-11-15T01:18:37.828Z,8.13
2022-11-15T01:21:10.048Z,7.57
2022-11-15T01:23:38.078Z,7.23
2022-11-15T01:26:07.325Z,6.13
2022-11-15T01:28:37.068Z,6.93
2022-11-15T01:31:07.189Z,6.67
2022-11-15T01:33:37.289Z,6.23
2022-11-15T01:41:18.658Z,6.20
2022-11-15T01:43:47.844Z,6.50
2022-11-15T01:46:28.019Z,6.43
2022-11-15T01:48:58.217Z,6.37
2022-11-15T01:51:30.157Z,6.50
2022-11-15T01:54:06.117Z,6.23
2022-11-15T01:56:37.887Z,6.10
2022-11-15T02:04:09.850Z,8.07
2022-11-15T02:06:37.667Z,7.03
2022-11-15T02:09:06.666Z,6.43
2022-11-15T02:11:34.230Z,6.47
2022-11-15T02:14:03.926Z,6.80
2022-11-15T02:16:38.986Z,6.50
2022-11-15T02:25:05.926Z,6.80
2022-11-15T02:28:09.477Z,6.87
2022-11-15T02:30:44.427Z,6.97
2022-11-15T02:33:24.545Z,6.10
2022-11-15T02:36:03.149Z,5.47
2022-11-15T02:38:40.468Z,6.90
2022-11-15T02:41:15.019Z,6.10
2022-11-15T02:49:07.806Z,6.17
2022-11-15T02:51:35.728Z,6.80
2022-11-15T02:54:03.065Z,5.73
2022-11-15T02:56:30.179Z,6.23
2022-11-15T02:59:18.628Z,6.47
2022-11-15T03:02:00.851Z,6.77
2022-11-15T03:07:17.763Z,7.83
2022-11-15T03:09:53.597Z,7.33
2022-11-15T03:12:28.376Z,6.70
2022-11-15T03:15:01.628Z,8.37
2022-11-15T03:17:31.188Z,7.70
2022-11-15T03:20:01.037Z,7.20
2022-11-15T03:22:32.196Z,7.90
2022-11-15T03:30:10.756Z,8.27
2022-11-15T03:32:42.890Z,8.33
2022-11-15T03:35:13.540Z,7.20
2022-11-15T03:37:47.244Z,8.27
2022-11-15T03:40:15.808Z,7.10
2022-11-15T03:42:48.530Z,8.17
2022-11-15T03:45:24.558Z,8.17
2022-11-15T03:52:52.550Z,8.40
2022-11-15T03:55:21.488Z,7.80
2022-11-15T03:57:51.578Z,9.30
2022-11-15T04:00:19.108Z,8.10
2022-11-15T04:02:49.296Z,8.73
2022-11-15T04:05:17.001Z,7.87
2022-11-15T04:07:44.502Z,7.87
2022-11-15T04:15:07.509Z,7.23
2022-11-15T04:17:35.657Z,7.80
2022-11-15T04:20:21.594Z,6.27
2022-11-15T04:23:06.785Z,6.53
2022-11-15T04:25:34.064Z,5.87
2022-11-15T04:28:01.516Z,6.17
2022-11-15T04:33:19.478Z,5.97
2022-11-15T04:36:07.952Z,6.40
2022-11-15T04:38:34.737Z,6.20
2022-11-15T04:41:02.475Z,6.20
2022-11-15T04:43:30.668Z,4.83
2022-11-15T04:46:01.599Z,4.40
2022-11-15T04:48:30.566Z,5.07
2022-11-15T04:58:49.999Z,3.87
2022-11-15T05:01:18.623Z,3.20
2022-11-15T05:04:04.428Z,3.97
2022-11-15T05:06:32.797Z,3.13
2022-11-15T05:09:00.598Z,3.50
2022-11-15T05:11:27.808Z,3.33
2022-11-15T05:13:56.788Z,3.13
2022-11-15T05:16:24.085Z,4.13
2022-11-15T05:34:25.126Z,2.40
2022-11-15T05:36:53.170Z,3.00
2022-11-15T05:39:21.036Z,2.80
2022-11-15T05:41:52.718Z,3.17
2022-11-15T05:44:22.786Z,3.10
2022-11-15T05:46:53.938Z,3.20
2022-11-15T05:55:02.239Z,3.73
2022-11-15T05:57:29.307Z,4.00
2022-11-15T05:59:56.858Z,3.80
2022-11-15T06:02:24.208Z,4.47
2022-11-15T06:04:51.570Z,3.80
2022-11-15T06:07:19.630Z,4.10
2022-11-15T06:09:47.035Z,4.30
2022-11-15T06:26:54.806Z,3.37
2022-11-15T06:29:22.088Z,3.83
2022-11-15T06:31:49.616Z,4.03
2022-11-15T06:34:17.630Z,4.20
2022-11-15T06:36:48.799Z,5.07
2022-11-15T06:39:16.257Z,4.43
2022-11-15T06:41:43.678Z,4.90
2022-11-15T06:51:37.847Z,5.33
2022-11-15T06:54:05.566Z,4.90
2022-11-15T06:56:32.697Z,5.40
2022-11-15T06:58:59.996Z,5.50
2022-11-15T07:01:27.623Z,5.70
2022-11-15T07:03:55.610Z,5.97
2022-11-15T07:06:23.601Z,5.83
2022-11-15T07:13:19.914Z,7.07
2022-11-15T07:15:48.233Z,6.57
2022-11-15T07:18:15.367Z,6.30
2022-11-15T07:20:42.651Z,6.17
2022-11-15T07:23:10.799Z,6.20
2022-11-15T07:25:40.659Z,5.87
2022-11-15T07:28:10.250Z,5.53
2022-11-15T07:30:42.605Z,6.10
2022-11-15T07:38:13.526Z,6.27
2022-11-15T07:40:40.537Z,5.53
2022-11-15T07:43:09.314Z,5.20
2022-11-15T07:45:42.420Z,5.70
2022-11-15T07:48:09.808Z,6.27
2022-11-15T07:50:37.010Z,5.77
2022-11-15T07:53:04.299Z,4.53
2022-11-15T07:59:56.122Z,4.67
2022-11-15T08:02:26.433Z,5.07
2022-11-15T08:04:57.807Z,4.27
2022-11-15T08:07:25.489Z,4.87
2022-11-15T08:09:53.487Z,4.50
2022-11-15T08:12:20.939Z,4.93
2022-11-15T08:14:48.439Z,4.83
2022-11-15T08:22:06.820Z,5.00
2022-11-15T08:24:34.691Z,4.03
2022-11-15T08:27:01.825Z,4.80
2022-11-15T08:29:28.980Z,4.33
2022-11-15T08:31:57.430Z,4.77
2022-11-15T08:34:24.699Z,3.50
2022-11-15T08:36:52.029Z,4.63
2022-11-15T08:43:37.268Z,5.33
2022-11-15T08:46:04.470Z,4.00
2022-11-15T08:48:32.549Z,5.00
2022-11-15T08:51:00.677Z,4.97
2022-11-15T08:53:28.230Z,5.00
2022-11-15T08:55:55.360Z,4.93
2022-11-15T08:58:24.748Z,4.33
2022-11-15T09:05:04.678Z,4.10
2022-11-15T09:07:32.387Z,4.60
2022-11-15T09:10:00.069Z,4.63
2022-11-15T09:12:27.137Z,4.27
2022-11-15T09:14:55.337Z,4.20
2022-11-15T09:17:25.029Z,4.17
2022-11-15T09:19:53.079Z,3.70
2022-11-15T09:25:00.847Z,5.17
2022-11-15T09:27:30.330Z,5.03
2022-11-15T09:29:57.561Z,12.33
2022-11-15T09:32:25.385Z,5.03
2022-11-15T09:34:52.580Z,5.07
2022-11-15T09:37:20.220Z,4.70
2022-11-15T09:39:49.358Z,5.37
2022-11-15T09:47:50.890Z,5.83
2022-11-15T09:50:32.710Z,7.20
2022-11-15T09:53:00.170Z,5.63
2022-11-15T09:55:38.390Z,6.43
2022-11-15T09:58:17.180Z,6.77
2022-11-15T10:00:52.776Z,6.93
2022-11-15T10:03:27.768Z,6.37
2022-11-15T10:13:05.406Z,5.10
2022-11-15T10:15:33.139Z,5.60
2022-11-15T10:18:16.046Z,5.87
2022-11-15T10:20:49.449Z,5.70
2022-11-15T10:23:19.804Z,5.80
2022-11-15T10:25:51.824Z,5.20
2022-11-15T10:45:06.468Z,5.37
2022-11-15T10:47:39.707Z,5.57
2022-11-15T10:50:28.961Z,5.83
2022-11-15T10:52:57.619Z,5.33
2022-11-15T10:55:31.813Z,5.03
2022-11-15T10:58:07.152Z,5.70
2022-11-15T11:09:47.024Z,4.80
2022-11-15T11:12:28.217Z,5.47
2022-11-15T11:15:42.787Z,4.60
2022-11-15T11:18:19.837Z,5.87
2022-11-15T11:21:18.938Z,4.73
2022-11-15T11:24:18.690Z,4.17
2022-11-15T11:38:05.335Z,2.70
2022-11-15T11:40:41.459Z,2.77
2022-11-15T11:43:16.157Z,3.10
2022-11-15T11:46:24.219Z,2.33
2022-11-15T11:49:22.217Z,2.63
2022-11-15T11:52:14.717Z,2.17
2022-11-15T11:55:31.279Z,2.80
2022-11-15T11:58:29.334Z,4.03
2022-11-15T12:11:56.338Z,2.83
2022-11-15T12:14:32.501Z,2.60
2022-11-15T12:17:00.509Z,2.57
2022-11-15T12:19:29.777Z,3.27
2022-11-15T12:22:04.882Z,3.87
2022-11-15T12:24:42.071Z,3.20
2022-11-15T12:27:21.946Z,3.97
2022-11-15T12:35:02.069Z,4.73
2022-11-15T12:37:51.689Z,5.37
2022-11-15T12:40:33.829Z,5.60
2022-11-15T12:43:26.990Z,5.97
2022-11-15T12:45:54.328Z,7.10
2022-11-15T12:48:58.738Z,6.00
2022-11-15T12:57:26.479Z,6.40
2022-11-15T12:59:55.609Z,6.07
2022-11-15T13:02:26.308Z,6.77
2022-11-15T13:04:55.907Z,6.23
2022-11-15T13:07:53.057Z,5.97
2022-11-15T13:10:32.158Z,5.17
2022-11-15T13:28:35.191Z,6.23
2022-11-15T13:31:07.827Z,6.67
2022-11-15T13:33:37.348Z,5.43
2022-11-15T13:36:07.877Z,5.57
2022-11-15T13:38:40.577Z,6.30
2022-11-15T13:41:20.967Z,6.57
2022-11-15T13:49:39.247Z,7.93
2022-11-15T13:52:08.062Z,7.33
2022-11-15T13:54:38.209Z,7.23
2022-11-15T13:57:13.349Z,8.77
2022-11-15T13:59:48.456Z,9.53
2022-11-15T14:02:18.306Z,9.87
2022-11-15T14:04:52.390Z,9.13
2022-11-15T14:07:23.954Z,8.07
2022-11-15T14:17:34.586Z,8.70
2022-11-15T14:20:02.608Z,7.77
2022-11-15T14:22:31.248Z,8.13
2022-11-15T14:25:19.611Z,8.53
2022-11-15T14:28:24.389Z,7.60
2022-11-15T14:30:54.739Z,7.33
2022-11-15T14:33:25.178Z,8.97
2022-11-15T14:39:19.928Z,8.73
2022-11-15T14:41:47.359Z,8.00
2022-11-15T14:44:18.767Z,7.20
2022-11-15T14:46:46.409Z,7.97
2022-11-15T14:49:14.836Z,6.63
2022-11-15T14:51:42.409Z,6.47
2022-11-15T14:54:14.059Z,6.40
2022-11-15T14:59:22.916Z,5.37
2022-11-15T15:01:51.079Z,5.57
2022-11-15T15:04:18.546Z,4.67
2022-11-15T15:06:46.111Z,4.93
2022-11-15T15:09:13.461Z,4.83
2022-11-15T15:11:41.127Z,4.80
2022-11-15T15:14:10.289Z,5.37
2022-11-15T15:16:39.237Z,4.33
2022-11-15T15:24:16.414Z,4.97
2022-11-15T15:26:43.947Z,5.47
2022-11-15T15:29:11.279Z,4.70
2022-11-15T15:31:38.696Z,4.83
2022-11-15T15:34:06.207Z,5.20
2022-11-15T15:36:33.599Z,5.30
2022-11-15T15:39:02.741Z,4.50
2022-11-15T15:44:10.927Z,4.57
2022-11-15T15:46:40.099Z,4.70
2022-11-15T15:49:13.539Z,5.93
2022-11-15T15:51:40.919Z,4.87
2022-11-15T15:54:08.683Z,5.73
2022-11-15T15:56:36.157Z,5.30
2022-11-15T15:59:03.769Z,4.80
2022-11-15T16:04:11.767Z,4.33
2022-11-15T16:06:44.679Z,4.67
2022-11-15T16:09:16.711Z,4.90
2022-11-15T16:11:46.228Z,4.40
2022-11-15T16:14:13.699Z,4.07
2022-11-15T16:16:41.739Z,4.10
2022-11-15T16:19:13.360Z,4.03
2022-11-15T16:21:40.889Z,4.40
2022-11-15T16:39:39.501Z,3.27
2022-11-15T16:42:09.548Z,2.90
2022-11-15T16:44:36.586Z,3.03
2022-11-15T16:47:03.986Z,3.10
2022-11-15T16:49:30.917Z,3.20
2022-11-15T16:51:58.197Z,3.27
2022-11-15T16:54:25.561Z,3.60
2022-11-15T17:01:23.648Z,3.47
2022-11-15T17:03:51.208Z,3.00
2022-11-15T17:06:19.468Z,3.53
2022-11-15T17:08:47.381Z,3.57
2022-11-15T17:11:16.902Z,2.87
2022-11-15T17:13:45.068Z,3.10
2022-11-15T17:16:14.462Z,3.20
2022-11-15T17:23:21.513Z,3.90
2022-11-15T17:25:48.972Z,3.57
2022-11-15T17:28:16.171Z,3.57
2022-11-15T17:30:43.424Z,3.67
2022-11-15T17:33:10.561Z,3.47
2022-11-15T17:35:37.973Z,3.23
2022-11-15T17:38:05.386Z,3.87
2022-11-15T17:45:16.152Z,3.37
2022-11-15T17:47:44.479Z,3.17
2022-11-15T17:50:12.077Z,4.40
2022-11-15T17:52:40.451Z,4.20
2022-11-15T17:55:08.291Z,3.20
2022-11-15T17:57:35.624Z,3.47
2022-11-15T18:00:04.404Z,4.27
2022-11-15T18:02:33.632Z,4.00
2022-11-15T18:10:34.654Z,3.10
2022-11-15T18:13:13.033Z,4.00
2022-11-15T18:18:41.139Z,3.77
2022-11-15T18:21:21.605Z,3.37
2022-11-15T18:23:58.473Z,3.40
2022-11-15T18:26:33.421Z,3.30
2022-11-15T18:32:12.133Z,3.27
2022-11-15T18:34:52.022Z,3.60
2022-11-15T18:37:24.061Z,3.07
2022-11-15T18:42:44.540Z,2.93
2022-11-15T18:45:11.562Z,3.73
2022-11-15T18:47:40.364Z,2.90
2022-11-15T18:50:08.173Z,2.90
2022-11-15T18:52:35.682Z,3.50
2022-11-15T18:55:03.911Z,2.87
2022-11-15T18:57:31.821Z,2.80
2022-11-15T19:04:57.841Z,3.00
2022-11-15T19:07:25.305Z,3.57
2022-11-15T19:09:53.863Z,3.53
2022-11-15T19:12:21.341Z,3.90
2022-11-15T19:14:48.641Z,3.87
2022-11-15T19:17:16.269Z,3.47
2022-11-15T19:19:43.724Z,3.87
2022-11-15T19:26:55.752Z,3.97
2022-11-15T19:29:23.663Z,3.90
2022-11-15T19:31:51.132Z,3.47
2022-11-15T19:34:19.084Z,3.87
2022-11-15T19:36:46.461Z,4.37
2022-11-15T19:39:17.651Z,3.57
2022-11-15T19:41:46.043Z,3.97
2022-11-15T19:48:45.002Z,4.30
2022-11-15T19:51:15.122Z,3.50
2022-11-15T19:53:43.036Z,3.50
2022-11-15T19:56:14.001Z,3.70
2022-11-15T19:58:44.724Z,3.90
2022-11-15T20:01:18.227Z,4.03
2022-11-15T20:03:47.450Z,4.00
2022-11-15T20:11:11.961Z,3.57
2022-11-15T20:13:39.930Z,3.93
2022-11-15T20:16:08.680Z,4.30
2022-11-15T20:18:36.511Z,4.67
2022-11-15T20:21:05.741Z,3.83
2022-11-15T20:23:33.483Z,3.80
2022-11-15T20:26:01.361Z,4.37
2022-11-15T20:31:40.501Z,3.60
2022-11-15T20:34:10.902Z,4.37
2022-11-15T20:36:38.671Z,4.13
2022-11-15T20:39:06.375Z,3.73
2022-11-15T20:41:34.419Z,4.33
2022-11-15T20:44:02.844Z,3.73
2022-11-15T20:46:30.281Z,3.93
2022-11-15T20:48:59.241Z,3.80
2022-11-15T20:56:31.620Z,3.83
2022-11-15T20:58:58.691Z,4.33
2022-11-15T21:01:26.177Z,4.20
2022-11-15T21:03:54.318Z,5.03
2022-11-15T21:06:22.452Z,4.07
2022-11-15T21:09:08.060Z,4.57
2022-11-15T21:11:54.470Z,4.90
2022-11-15T21:17:32.056Z,4.97
2022-11-15T21:19:59.483Z,4.70
2022-11-15T21:22:27.563Z,4.93
2022-11-15T21:24:58.310Z,4.33
2022-11-15T21:27:26.054Z,5.13
2022-11-15T21:29:53.153Z,4.40
2022-11-15T21:32:21.680Z,4.80
2022-11-15T21:37:30.726Z,4.30
2022-11-15T21:39:57.844Z,4.60
2022-11-15T21:42:25.015Z,4.40
2022-11-15T21:44:53.680Z,4.20
2022-11-15T21:47:24.171Z,4.73
2022-11-15T21:49:51.033Z,4.60
2022-11-15T21:52:18.185Z,4.57
2022-11-15T22:00:12.621Z,5.07
2022-11-15T22:02:39.561Z,5.67
2022-11-15T22:05:09.532Z,4.43
2022-11-15T22:07:40.064Z,5.23
2022-11-15T22:10:07.932Z,5.33
2022-11-15T22:12:35.294Z,4.87
2022-11-15T22:15:03.971Z,5.27
2022-11-15T22:20:37.706Z,5.23
2022-11-15T22:23:01.643Z,5.80
2022-11-15T22:25:31.221Z,5.90
2022-11-15T22:27:58.979Z,5.73
2022-11-15T22:30:26.358Z,5.20
2022-11-15T22:32:54.194Z,5.90
2022-11-15T22:35:23.084Z,5.83
2022-11-15T22:37:52.343Z,6.23
2022-11-15T22:45:26.834Z,5.80
2022-11-15T22:47:54.473Z,5.87
2022-11-15T22:50:25.273Z,6.20
2022-11-15T22:52:56.895Z,7.10
2022-11-15T22:55:24.411Z,7.93
2022-11-15T22:57:51.861Z,6.27
2022-11-15T23:00:24.361Z,6.23
2022-11-15T23:17:23.073Z,6.57
2022-11-15T23:19:50.552Z,6.07
2022-11-15T23:22:35.981Z,7.03
2022-11-15T23:25:03.724Z,6.57
2022-11-15T23:27:31.183Z,6.30
2022-11-15T23:30:16.494Z,6.93
2022-11-15T23:33:03.283Z,6.30
2022-11-15T23:38:11.551Z,7.53
2022-11-15T23:40:39.185Z,6.87
2022-11-15T23:43:06.973Z,7.00
2022-11-15T23:45:34.413Z,7.23
2022-11-15T23:48:02.951Z,6.30
2022-11-15T23:50:32.193Z,7.40
2022-11-15T23:53:02.702Z,7.00
2022-11-15T23:55:32.227Z,7.13
